sensor_id;sensor_type;location;lat;lon;timestamp;temperature;humidity
15625;DHT22;7912;51.376;6.126;2022-07-30T00:01:34;20.90;98.40
15625;DHT22;7912;51.376;6.126;2022-07-30T00:04:02;20.90;98.60
15625;DHT22;7912;51.376;6.126;2022-07-30T00:06:29;20.90;98.70
15625;DHT22;7912;51.376;6.126;2022-07-30T00:08:58;20.80;98.90
15625;DHT22;7912;51.376;6.126;2022-07-30T00:11:25;20.70;99.00
15625;DHT22;7912;51.376;6.126;2022-07-30T00:13:54;20.70;99.10
15625;DHT22;7912;51.376;6.126;2022-07-30T00:16:22;20.60;99.40
15625;DHT22;7912;51.376;6.126;2022-07-30T00:18:49;20.60;99.50
15625;DHT22;7912;51.376;6.126;2022-07-30T00:21:17;20.50;99.60
15625;DHT22;7912;51.376;6.126;2022-07-30T00:24:02;20.50;99.80
15625;DHT22;7912;51.376;6.126;2022-07-30T00:26:30;20.40;99.90
15625;DHT22;7912;51.376;6.126;2022-07-30T00:28:57;20.40;99.90
15625;DHT22;7912;51.376;6.126;2022-07-30T00:31:24;20.30;99.90
15625;DHT22;7912;51.376;6.126;2022-07-30T00:33:52;20.30;99.90
15625;DHT22;7912;51.376;6.126;2022-07-30T00:36:20;20.20;99.90
15625;DHT22;7912;51.376;6.126;2022-07-30T00:38:47;20.20;99.90
15625;DHT22;7912;51.376;6.126;2022-07-30T00:41:15;20.20;99.90
15625;DHT22;7912;51.376;6.126;2022-07-30T00:43:42;20.10;99.90
15625;DHT22;7912;51.376;6.126;2022-07-30T00:46:10;20.10;99.90
15625;DHT22;7912;51.376;6.126;2022-07-30T00:48:37;20.10;99.90
15625;DHT22;7912;51.376;6.126;2022-07-30T00:51:05;20.00;99.90
15625;DHT22;7912;51.376;6.126;2022-07-30T00:53:33;20.00;99.90
15625;DHT22;7912;51.376;6.126;2022-07-30T00:56:01;20.00;99.90
15625;DHT22;7912;51.376;6.126;2022-07-30T00:58:29;19.90;99.90
15625;DHT22;7912;51.376;6.126;2022-07-30T01:00:56;19.90;99.90
15625;DHT22;7912;51.376;6.126;2022-07-30T01:03:24;19.90;99.90
15625;DHT22;7912;51.376;6.126;2022-07-30T01:05:51;19.90;99.90
15625;DHT22;7912;51.376;6.126;2022-07-30T01:08:19;19.90;99.90
15625;DHT22;7912;51.376;6.126;2022-07-30T01:10:46;19.90;99.90
15625;DHT22;7912;51.376;6.126;2022-07-30T01:13:13;19.80;99.90
15625;DHT22;7912;51.376;6.126;2022-07-30T01:15:41;19.80;99.90
15625;DHT22;7912;51.376;6.126;2022-07-30T01:18:10;19.80;99.90
15625;DHT22;7912;51.376;6.126;2022-07-30T01:20:47;19.80;99.90
15625;DHT22;7912;51.376;6.126;2022-07-30T01:23:40;19.70;99.90
15625;DHT22;7912;51.376;6.126;2022-07-30T01:26:14;19.70;99.90
15625;DHT22;7912;51.376;6.126;2022-07-30T01:28:49;19.70;99.90
15625;DHT22;7912;51.376;6.126;2022-07-30T01:31:20;19.70;99.90
15625;DHT22;7912;51.376;6.126;2022-07-30T01:33:50;19.70;99.90
15625;DHT22;7912;51.376;6.126;2022-07-30T01:36:19;19.70;99.90
15625;DHT22;7912;51.376;6.126;2022-07-30T01:38:50;19.70;99.90
15625;DHT22;7912;51.376;6.126;2022-07-30T01:41:19;19.70;99.90
15625;DHT22;7912;51.376;6.126;2022-07-30T01:43:47;19.70;99.90
15625;DHT22;7912;51.376;6.126;2022-07-30T01:46:15;19.60;99.90
15625;DHT22;7912;51.376;6.126;2022-07-30T01:48:44;19.60;99.90
15625;DHT22;7912;51.376;6.126;2022-07-30T01:51:16;19.60;99.90
15625;DHT22;7912;51.376;6.126;2022-07-30T01:53:45;19.60;99.90
15625;DHT22;7912;51.376;6.126;2022-07-30T01:56:16;19.60;99.90
15625;DHT22;7912;51.376;6.126;2022-07-30T01:58:50;19.60;99.90
15625;DHT22;7912;51.376;6.126;2022-07-30T02:01:20;19.60;99.90
15625;DHT22;7912;51.376;6.126;2022-07-30T02:03:49;19.50;99.90
15625;DHT22;7912;51.376;6.126;2022-07-30T02:06:20;19.50;99.90
15625;DHT22;7912;51.376;6.126;2022-07-30T02:08:55;19.50;99.90
15625;DHT22;7912;51.376;6.126;2022-07-30T02:11:42;19.50;99.90
15625;DHT22;7912;51.376;6.126;2022-07-30T02:14:37;19.50;99.90
15625;DHT22;7912;51.376;6.126;2022-07-30T02:17:18;19.50;99.90
15625;DHT22;7912;51.376;6.126;2022-07-30T02:20:00;19.40;99.90
15625;DHT22;7912;51.376;6.126;2022-07-30T02:22:38;19.40;99.90
15625;DHT22;7912;51.376;6.126;2022-07-30T02:25:08;19.30;99.90
15625;DHT22;7912;51.376;6.126;2022-07-30T02:27:39;19.30;99.90
15625;DHT22;7912;51.376;6.126;2022-07-30T02:30:10;19.30;99.90
15625;DHT22;7912;51.376;6.126;2022-07-30T02:32:40;19.30;99.90
15625;DHT22;7912;51.376;6.126;2022-07-30T02:35:14;19.20;99.90
15625;DHT22;7912;51.376;6.126;2022-07-30T02:37:47;19.20;99.90
15625;DHT22;7912;51.376;6.126;2022-07-30T02:40:20;19.20;99.90
15625;DHT22;7912;51.376;6.126;2022-07-30T02:42:50;19.10;99.90
15625;DHT22;7912;51.376;6.126;2022-07-30T02:45:19;19.10;99.90
15625;DHT22;7912;51.376;6.126;2022-07-30T02:47:59;19.10;99.90
15625;DHT22;7912;51.376;6.126;2022-07-30T02:58:24;19.00;99.90
15625;DHT22;7912;51.376;6.126;2022-07-30T03:00:54;18.90;99.90
15625;DHT22;7912;51.376;6.126;2022-07-30T03:03:23;18.90;99.90
15625;DHT22;7912;51.376;6.126;2022-07-30T03:05:55;18.90;99.90
15625;DHT22;7912;51.376;6.126;2022-07-30T03:08:27;18.90;99.90
15625;DHT22;7912;51.376;6.126;2022-07-30T03:10:57;18.80;99.90
15625;DHT22;7912;51.376;6.126;2022-07-30T03:13:26;18.80;99.90
15625;DHT22;7912;51.376;6.126;2022-07-30T03:15:56;18.80;99.90
15625;DHT22;7912;51.376;6.126;2022-07-30T03:18:27;18.70;99.90
15625;DHT22;7912;51.376;6.126;2022-07-30T03:21:00;18.70;99.90
15625;DHT22;7912;51.376;6.126;2022-07-30T03:23:32;18.70;99.90
15625;DHT22;7912;51.376;6.126;2022-07-30T03:26:04;18.70;99.90
15625;DHT22;7912;51.376;6.126;2022-07-30T03:28:37;18.70;99.90
15625;DHT22;7912;51.376;6.126;2022-07-30T03:31:06;18.70;99.90
15625;DHT22;7912;51.376;6.126;2022-07-30T03:33:35;18.60;99.90
15625;DHT22;7912;51.376;6.126;2022-07-30T03:36:06;18.60;99.90
15625;DHT22;7912;51.376;6.126;2022-07-30T03:38:38;18.60;99.90
15625;DHT22;7912;51.376;6.126;2022-07-30T03:41:09;18.60;99.90
15625;DHT22;7912;51.376;6.126;2022-07-30T03:43:39;18.60;99.90
15625;DHT22;7912;51.376;6.126;2022-07-30T03:46:08;18.60;99.90
15625;DHT22;7912;51.376;6.126;2022-07-30T03:48:37;18.60;99.90
15625;DHT22;7912;51.376;6.126;2022-07-30T03:51:07;18.60;99.90
15625;DHT22;7912;51.376;6.126;2022-07-30T03:53:40;18.60;99.90
15625;DHT22;7912;51.376;6.126;2022-07-30T03:56:08;18.70;99.90
15625;DHT22;7912;51.376;6.126;2022-07-30T03:58:37;18.70;99.90
15625;DHT22;7912;51.376;6.126;2022-07-30T04:01:05;18.70;99.90
15625;DHT22;7912;51.376;6.126;2022-07-30T04:03:33;18.70;99.90
15625;DHT22;7912;51.376;6.126;2022-07-30T04:06:00;18.80;99.90
15625;DHT22;7912;51.376;6.126;2022-07-30T04:08:28;18.80;99.90
15625;DHT22;7912;51.376;6.126;2022-07-30T04:10:55;18.80;99.90
15625;DHT22;7912;51.376;6.126;2022-07-30T04:13:23;18.90;99.90
15625;DHT22;7912;51.376;6.126;2022-07-30T04:19:03;19.00;99.90
15625;DHT22;7912;51.376;6.126;2022-07-30T04:24:43;19.00;99.90
15625;DHT22;7912;51.376;6.126;2022-07-30T04:27:11;19.10;99.90
15625;DHT22;7912;51.376;6.126;2022-07-30T04:29:39;19.10;99.90
15625;DHT22;7912;51.376;6.126;2022-07-30T04:32:08;19.10;99.90
15625;DHT22;7912;51.376;6.126;2022-07-30T04:34:35;19.10;99.90
15625;DHT22;7912;51.376;6.126;2022-07-30T04:37:03;19.20;99.90
15625;DHT22;7912;51.376;6.126;2022-07-30T04:39:30;19.20;99.90
15625;DHT22;7912;51.376;6.126;2022-07-30T04:41:58;19.20;99.90
15625;DHT22;7912;51.376;6.126;2022-07-30T04:44:25;19.30;99.90
15625;DHT22;7912;51.376;6.126;2022-07-30T04:46:52;19.30;99.90
15625;DHT22;7912;51.376;6.126;2022-07-30T04:49:21;19.30;99.90
15625;DHT22;7912;51.376;6.126;2022-07-30T04:51:50;19.30;99.90
15625;DHT22;7912;51.376;6.126;2022-07-30T04:54:20;19.40;99.90
15625;DHT22;7912;51.376;6.126;2022-07-30T04:56:48;19.40;99.90
15625;DHT22;7912;51.376;6.126;2022-07-30T04:59:22;19.40;99.90
15625;DHT22;7912;51.376;6.126;2022-07-30T05:01:52;19.50;99.90
15625;DHT22;7912;51.376;6.126;2022-07-30T05:04:24;19.50;99.90
15625;DHT22;7912;51.376;6.126;2022-07-30T05:06:54;19.50;99.90
15625;DHT22;7912;51.376;6.126;2022-07-30T05:09:22;19.60;99.90
15625;DHT22;7912;51.376;6.126;2022-07-30T05:11:51;19.60;99.90
15625;DHT22;7912;51.376;6.126;2022-07-30T05:14:20;19.60;99.90
15625;DHT22;7912;51.376;6.126;2022-07-30T05:16:50;19.60;99.90
15625;DHT22;7912;51.376;6.126;2022-07-30T05:19:18;19.60;99.90
15625;DHT22;7912;51.376;6.126;2022-07-30T05:21:46;19.60;99.90
15625;DHT22;7912;51.376;6.126;2022-07-30T05:24:14;19.60;99.90
15625;DHT22;7912;51.376;6.126;2022-07-30T05:26:42;19.60;99.90
15625;DHT22;7912;51.376;6.126;2022-07-30T05:29:09;19.60;99.90
15625;DHT22;7912;51.376;6.126;2022-07-30T05:31:46;19.70;99.90
15625;DHT22;7912;51.376;6.126;2022-07-30T05:34:14;19.70;99.90
15625;DHT22;7912;51.376;6.126;2022-07-30T05:36:41;19.70;99.90
15625;DHT22;7912;51.376;6.126;2022-07-30T05:39:11;19.70;99.90
15625;DHT22;7912;51.376;6.126;2022-07-30T05:41:38;19.80;99.90
15625;DHT22;7912;51.376;6.126;2022-07-30T05:44:05;19.80;99.90
15625;DHT22;7912;51.376;6.126;2022-07-30T05:46:33;19.80;99.90
15625;DHT22;7912;51.376;6.126;2022-07-30T05:49:00;19.80;99.90
15625;DHT22;7912;51.376;6.126;2022-07-30T05:51:28;19.80;99.90
15625;DHT22;7912;51.376;6.126;2022-07-30T05:53:55;19.80;99.90
15625;DHT22;7912;51.376;6.126;2022-07-30T05:56:28;19.80;99.90
15625;DHT22;7912;51.376;6.126;2022-07-30T05:58:56;19.80;99.90
15625;DHT22;7912;51.376;6.126;2022-07-30T06:01:24;19.90;99.90
15625;DHT22;7912;51.376;6.126;2022-07-30T06:03:54;19.90;99.90
15625;DHT22;7912;51.376;6.126;2022-07-30T06:06:27;19.90;99.90
15625;DHT22;7912;51.376;6.126;2022-07-30T06:08:56;20.00;99.90
15625;DHT22;7912;51.376;6.126;2022-07-30T06:11:26;20.00;99.90
15625;DHT22;7912;51.376;6.126;2022-07-30T06:13:54;20.10;99.90
15625;DHT22;7912;51.376;6.126;2022-07-30T06:16:24;20.20;99.90
15625;DHT22;7912;51.376;6.126;2022-07-30T06:18:54;20.20;99.90
15625;DHT22;7912;51.376;6.126;2022-07-30T06:21:27;20.30;99.90
15625;DHT22;7912;51.376;6.126;2022-07-30T06:24:15;20.40;99.90
15625;DHT22;7912;51.376;6.126;2022-07-30T06:26:48;20.50;99.90
15625;DHT22;7912;51.376;6.126;2022-07-30T06:29:26;20.60;99.90
15625;DHT22;7912;51.376;6.126;2022-07-30T06:32:02;20.70;99.90
15625;DHT22;7912;51.376;6.126;2022-07-30T06:34:40;20.80;99.90
15625;DHT22;7912;51.376;6.126;2022-07-30T06:37:08;21.00;99.90
15625;DHT22;7912;51.376;6.126;2022-07-30T06:39:46;21.10;99.90
15625;DHT22;7912;51.376;6.126;2022-07-30T06:42:25;21.20;99.90
15625;DHT22;7912;51.376;6.126;2022-07-30T06:45:09;21.30;99.90
15625;DHT22;7912;51.376;6.126;2022-07-30T06:47:47;21.40;99.90
15625;DHT22;7912;51.376;6.126;2022-07-30T06:50:19;21.40;99.90
15625;DHT22;7912;51.376;6.126;2022-07-30T06:52:56;21.40;99.90
15625;DHT22;7912;51.376;6.126;2022-07-30T06:55:46;21.50;99.90
15625;DHT22;7912;51.376;6.126;2022-07-30T06:58:37;21.50;99.90
15625;DHT22;7912;51.376;6.126;2022-07-30T07:01:29;21.60;99.90
15625;DHT22;7912;51.376;6.126;2022-07-30T07:04:18;21.60;99.90
15625;DHT22;7912;51.376;6.126;2022-07-30T07:06:53;21.80;99.90
15625;DHT22;7912;51.376;6.126;2022-07-30T07:09:45;21.90;99.90
15625;DHT22;7912;51.376;6.126;2022-07-30T07:12:21;22.10;99.90
15625;DHT22;7912;51.376;6.126;2022-07-30T07:14:53;22.30;99.90
15625;DHT22;7912;51.376;6.126;2022-07-30T07:17:21;22.50;99.90
15625;DHT22;7912;51.376;6.126;2022-07-30T07:19:55;22.70;99.90
15625;DHT22;7912;51.376;6.126;2022-07-30T07:22:31;22.90;99.90
15625;DHT22;7912;51.376;6.126;2022-07-30T07:25:03;23.10;99.90
15625;DHT22;7912;51.376;6.126;2022-07-30T07:27:33;23.30;99.90
15625;DHT22;7912;51.376;6.126;2022-07-30T07:30:06;23.50;99.90
15625;DHT22;7912;51.376;6.126;2022-07-30T07:32:36;23.70;99.90
15625;DHT22;7912;51.376;6.126;2022-07-30T07:35:08;23.90;99.90
15625;DHT22;7912;51.376;6.126;2022-07-30T07:37:41;24.00;99.90
15625;DHT22;7912;51.376;6.126;2022-07-30T07:40:08;24.20;99.90
15625;DHT22;7912;51.376;6.126;2022-07-30T07:42:36;24.30;99.90
15625;DHT22;7912;51.376;6.126;2022-07-30T07:45:10;24.50;99.90
15625;DHT22;7912;51.376;6.126;2022-07-30T07:47:45;24.70;99.90
15625;DHT22;7912;51.376;6.126;2022-07-30T07:50:22;25.00;99.90
15625;DHT22;7912;51.376;6.126;2022-07-30T07:53:06;25.20;99.90
15625;DHT22;7912;51.376;6.126;2022-07-30T07:55:51;25.30;99.90
15625;DHT22;7912;51.376;6.126;2022-07-30T07:58:40;25.50;99.90
15625;DHT22;7912;51.376;6.126;2022-07-30T08:01:22;25.60;99.60
15625;DHT22;7912;51.376;6.126;2022-07-30T08:03:52;25.70;99.80
15625;DHT22;7912;51.376;6.126;2022-07-30T08:06:22;25.70;98.90
15625;DHT22;7912;51.376;6.126;2022-07-30T08:08:51;25.70;98.60
15625;DHT22;7912;51.376;6.126;2022-07-30T08:11:21;25.70;98.60
15625;DHT22;7912;51.376;6.126;2022-07-30T08:13:54;25.70;98.50
15625;DHT22;7912;51.376;6.126;2022-07-30T08:16:27;25.70;98.10
15625;DHT22;7912;51.376;6.126;2022-07-30T08:19:00;25.70;98.10
15625;DHT22;7912;51.376;6.126;2022-07-30T08:21:31;25.70;98.30
15625;DHT22;7912;51.376;6.126;2022-07-30T08:23:59;25.80;98.20
15625;DHT22;7912;51.376;6.126;2022-07-30T08:26:34;26.00;97.90
15625;DHT22;7912;51.376;6.126;2022-07-30T08:29:04;26.30;98.00
15625;DHT22;7912;51.376;6.126;2022-07-30T08:31:42;26.50;97.50
15625;DHT22;7912;51.376;6.126;2022-07-30T08:34:10;26.80;96.60
15625;DHT22;7912;51.376;6.126;2022-07-30T08:36:40;27.00;95.60
15625;DHT22;7912;51.376;6.126;2022-07-30T08:39:11;27.20;94.90
15625;DHT22;7912;51.376;6.126;2022-07-30T08:41:42;27.30;94.50
15625;DHT22;7912;51.376;6.126;2022-07-30T08:44:17;27.40;94.50
15625;DHT22;7912;51.376;6.126;2022-07-30T08:46:48;27.60;93.50
15625;DHT22;7912;51.376;6.126;2022-07-30T08:49:19;27.70;93.70
15625;DHT22;7912;51.376;6.126;2022-07-30T08:51:49;27.90;93.20
15625;DHT22;7912;51.376;6.126;2022-07-30T08:54:20;28.10;92.90
15625;DHT22;7912;51.376;6.126;2022-07-30T08:56:51;28.30;93.20
15625;DHT22;7912;51.376;6.126;2022-07-30T08:59:22;28.40;92.90
15625;DHT22;7912;51.376;6.126;2022-07-30T09:02:11;28.60;90.50
15625;DHT22;7912;51.376;6.126;2022-07-30T09:04:56;28.80;90.50
15625;DHT22;7912;51.376;6.126;2022-07-30T09:07:25;29.00;88.30
15625;DHT22;7912;51.376;6.126;2022-07-30T09:09:55;29.00;88.90
15625;DHT22;7912;51.376;6.126;2022-07-30T09:12:32;29.00;88.50
15625;DHT22;7912;51.376;6.126;2022-07-30T09:15:10;29.10;86.40
15625;DHT22;7912;51.376;6.126;2022-07-30T09:20:26;29.10;87.50
15625;DHT22;7912;51.376;6.126;2022-07-30T09:22:59;29.10;85.60
15625;DHT22;7912;51.376;6.126;2022-07-30T09:25:43;29.10;83.90
15625;DHT22;7912;51.376;6.126;2022-07-30T09:28:16;29.00;84.70
15625;DHT22;7912;51.376;6.126;2022-07-30T09:30:57;29.00;86.00
15625;DHT22;7912;51.376;6.126;2022-07-30T09:33:41;29.00;85.10
15625;DHT22;7912;51.376;6.126;2022-07-30T09:36:16;29.00;82.50
15625;DHT22;7912;51.376;6.126;2022-07-30T09:38:50;29.10;83.60
15625;DHT22;7912;51.376;6.126;2022-07-30T09:41:33;29.20;83.10
15625;DHT22;7912;51.376;6.126;2022-07-30T09:44:06;29.20;82.70
15625;DHT22;7912;51.376;6.126;2022-07-30T09:46:46;29.20;83.00
15625;DHT22;7912;51.376;6.126;2022-07-30T09:49:19;29.30;84.40
15625;DHT22;7912;51.376;6.126;2022-07-30T09:51:50;29.40;84.50
15625;DHT22;7912;51.376;6.126;2022-07-30T09:54:23;29.50;82.70
15625;DHT22;7912;51.376;6.126;2022-07-30T09:57:18;29.70;82.30
15625;DHT22;7912;51.376;6.126;2022-07-30T09:59:52;30.00;80.40
15625;DHT22;7912;51.376;6.126;2022-07-30T10:02:33;30.20;80.30
15625;DHT22;7912;51.376;6.126;2022-07-30T10:05:10;30.30;77.40
15625;DHT22;7912;51.376;6.126;2022-07-30T10:10:29;30.50;74.00
15625;DHT22;7912;51.376;6.126;2022-07-30T10:13:03;30.70;73.50
15625;DHT22;7912;51.376;6.126;2022-07-30T10:15:34;30.80;72.30
15625;DHT22;7912;51.376;6.126;2022-07-30T10:18:05;30.90;73.50
15625;DHT22;7912;51.376;6.126;2022-07-30T10:20:34;31.10;72.60
15625;DHT22;7912;51.376;6.126;2022-07-30T10:23:06;31.30;72.40
15625;DHT22;7912;51.376;6.126;2022-07-30T10:25:41;31.50;71.50
15625;DHT22;7912;51.376;6.126;2022-07-30T10:28:21;31.60;70.70
15625;DHT22;7912;51.376;6.126;2022-07-30T10:30:56;31.80;70.20
15625;DHT22;7912;51.376;6.126;2022-07-30T10:33:28;31.90;69.20
15625;DHT22;7912;51.376;6.126;2022-07-30T10:36:04;32.10;68.10
15625;DHT22;7912;51.376;6.126;2022-07-30T10:38:37;32.10;66.80
15625;DHT22;7912;51.376;6.126;2022-07-30T10:47:12;32.20;64.90
15625;DHT22;7912;51.376;6.126;2022-07-30T10:50:10;32.20;66.40
15625;DHT22;7912;51.376;6.126;2022-07-30T10:52:53;32.30;65.90
15625;DHT22;7912;51.376;6.126;2022-07-30T10:55:33;32.40;64.50
15625;DHT22;7912;51.376;6.126;2022-07-30T10:58:07;32.50;65.50
15625;DHT22;7912;51.376;6.126;2022-07-30T11:04:16;32.80;64.70
15625;DHT22;7912;51.376;6.126;2022-07-30T11:09:50;32.90;61.40
15625;DHT22;7912;51.376;6.126;2022-07-30T11:15:14;32.80;61.40
15625;DHT22;7912;51.376;6.126;2022-07-30T11:18:03;32.80;61.40
15625;DHT22;7912;51.376;6.126;2022-07-30T11:20:39;32.90;62.00
15625;DHT22;7912;51.376;6.126;2022-07-30T11:25:52;33.00;60.70
15625;DHT22;7912;51.376;6.126;2022-07-30T11:28:42;33.00;61.70
15625;DHT22;7912;51.376;6.126;2022-07-30T11:31:36;33.00;60.00
15625;DHT22;7912;51.376;6.126;2022-07-30T11:34:24;33.10;59.90
15625;DHT22;7912;51.376;6.126;2022-07-30T11:37:11;33.20;60.40
15625;DHT22;7912;51.376;6.126;2022-07-30T11:42:35;33.20;58.60
15625;DHT22;7912;51.376;6.126;2022-07-30T11:47:46;33.10;59.10
15625;DHT22;7912;51.376;6.126;2022-07-30T11:50:28;33.20;59.50
15625;DHT22;7912;51.376;6.126;2022-07-30T11:53:03;33.20;58.70
15625;DHT22;7912;51.376;6.126;2022-07-30T11:55:35;33.20;58.80
15625;DHT22;7912;51.376;6.126;2022-07-30T11:58:35;33.20;58.90
15625;DHT22;7912;51.376;6.126;2022-07-30T12:01:12;33.20;58.40
15625;DHT22;7912;51.376;6.126;2022-07-30T12:03:43;33.30;56.10
15625;DHT22;7912;51.376;6.126;2022-07-30T12:06:13;33.30;56.70
15625;DHT22;7912;51.376;6.126;2022-07-30T12:08:50;33.20;56.80
15625;DHT22;7912;51.376;6.126;2022-07-30T12:11:31;33.20;57.40
15625;DHT22;7912;51.376;6.126;2022-07-30T12:14:00;33.20;57.20
15625;DHT22;7912;51.376;6.126;2022-07-30T12:16:30;33.20;57.60
15625;DHT22;7912;51.376;6.126;2022-07-30T12:19:05;33.20;56.70
15625;DHT22;7912;51.376;6.126;2022-07-30T12:21:38;33.20;56.50
15625;DHT22;7912;51.376;6.126;2022-07-30T12:24:06;33.20;57.30
15625;DHT22;7912;51.376;6.126;2022-07-30T12:26:36;33.20;57.40
15625;DHT22;7912;51.376;6.126;2022-07-30T12:29:09;33.20;56.70
15625;DHT22;7912;51.376;6.126;2022-07-30T12:31:51;33.20;57.00
15625;DHT22;7912;51.376;6.126;2022-07-30T12:34:22;33.30;57.00
15625;DHT22;7912;51.376;6.126;2022-07-30T12:36:51;33.30;56.30
15625;DHT22;7912;51.376;6.126;2022-07-30T12:39:22;33.30;56.30
15625;DHT22;7912;51.376;6.126;2022-07-30T12:41:54;33.20;55.60
15625;DHT22;7912;51.376;6.126;2022-07-30T12:44:43;33.00;56.30
15625;DHT22;7912;51.376;6.126;2022-07-30T12:47:23;32.80;57.20
15625;DHT22;7912;51.376;6.126;2022-07-30T12:49:54;32.80;57.70
15625;DHT22;7912;51.376;6.126;2022-07-30T12:52:28;33.00;57.70
15625;DHT22;7912;51.376;6.126;2022-07-30T12:57:55;33.20;57.10
15625;DHT22;7912;51.376;6.126;2022-07-30T13:00:24;33.30;56.90
15625;DHT22;7912;51.376;6.126;2022-07-30T13:03:23;33.30;56.50
15625;DHT22;7912;51.376;6.126;2022-07-30T13:05:54;33.30;56.70
15625;DHT22;7912;51.376;6.126;2022-07-30T13:08:46;33.20;56.70
15625;DHT22;7912;51.376;6.126;2022-07-30T13:11:21;33.20;56.80
15625;DHT22;7912;51.376;6.126;2022-07-30T13:13:52;33.20;57.20
15625;DHT22;7912;51.376;6.126;2022-07-30T13:16:20;33.20;56.40
15625;DHT22;7912;51.376;6.126;2022-07-30T13:18:47;33.20;56.40
15625;DHT22;7912;51.376;6.126;2022-07-30T13:21:15;33.20;56.80
15625;DHT22;7912;51.376;6.126;2022-07-30T13:23:44;33.20;56.80
15625;DHT22;7912;51.376;6.126;2022-07-30T13:26:14;33.20;56.70
15625;DHT22;7912;51.376;6.126;2022-07-30T13:28:42;33.20;56.90
15625;DHT22;7912;51.376;6.126;2022-07-30T13:31:12;33.30;56.80
15625;DHT22;7912;51.376;6.126;2022-07-30T13:33:40;33.30;56.50
15625;DHT22;7912;51.376;6.126;2022-07-30T13:36:09;33.30;56.90
15625;DHT22;7912;51.376;6.126;2022-07-30T13:38:37;33.30;56.90
15625;DHT22;7912;51.376;6.126;2022-07-30T13:41:08;33.40;56.70
15625;DHT22;7912;51.376;6.126;2022-07-30T13:43:37;33.50;56.50
15625;DHT22;7912;51.376;6.126;2022-07-30T13:46:05;33.50;56.50
15625;DHT22;7912;51.376;6.126;2022-07-30T13:48:34;33.60;56.30
15625;DHT22;7912;51.376;6.126;2022-07-30T13:51:03;33.80;56.40
15625;DHT22;7912;51.376;6.126;2022-07-30T13:53:31;33.80;56.80
15625;DHT22;7912;51.376;6.126;2022-07-30T13:55:59;33.90;56.10
15625;DHT22;7912;51.376;6.126;2022-07-30T13:58:27;33.90;56.00
15625;DHT22;7912;51.376;6.126;2022-07-30T14:01:01;33.90;56.50
15625;DHT22;7912;51.376;6.126;2022-07-30T14:03:29;34.00;56.90
15625;DHT22;7912;51.376;6.126;2022-07-30T14:05:57;34.20;56.70
15625;DHT22;7912;51.376;6.126;2022-07-30T14:08:37;34.40;56.30
15625;DHT22;7912;51.376;6.126;2022-07-30T14:11:05;34.60;55.40
15625;DHT22;7912;51.376;6.126;2022-07-30T14:13:32;34.70;55.10
15625;DHT22;7912;51.376;6.126;2022-07-30T14:15:59;34.80;54.70
15625;DHT22;7912;51.376;6.126;2022-07-30T14:18:26;34.70;54.80
15625;DHT22;7912;51.376;6.126;2022-07-30T14:20:54;34.60;54.70
15625;DHT22;7912;51.376;6.126;2022-07-30T14:23:21;34.50;54.70
15625;DHT22;7912;51.376;6.126;2022-07-30T14:25:48;34.50;54.70
15625;DHT22;7912;51.376;6.126;2022-07-30T14:28:18;34.50;54.80
15625;DHT22;7912;51.376;6.126;2022-07-30T14:30:49;34.50;55.00
15625;DHT22;7912;51.376;6.126;2022-07-30T14:33:17;34.50;54.90
15625;DHT22;7912;51.376;6.126;2022-07-30T14:35:54;34.60;54.80
15625;DHT22;7912;51.376;6.126;2022-07-30T14:38:34;34.70;54.50
15625;DHT22;7912;51.376;6.126;2022-07-30T14:41:02;34.80;54.60
15625;DHT22;7912;51.376;6.126;2022-07-30T14:43:33;34.80;54.50
15625;DHT22;7912;51.376;6.126;2022-07-30T14:46:00;35.00;54.20
15625;DHT22;7912;51.376;6.126;2022-07-30T14:48:29;35.00;54.30
15625;DHT22;7912;51.376;6.126;2022-07-30T14:50:59;35.00;54.20
15625;DHT22;7912;51.376;6.126;2022-07-30T14:53:47;35.00;54.00
15625;DHT22;7912;51.376;6.126;2022-07-30T14:56:19;34.90;53.80
15625;DHT22;7912;51.376;6.126;2022-07-30T14:58:48;34.80;53.80
15625;DHT22;7912;51.376;6.126;2022-07-30T15:01:16;34.70;53.90
15625;DHT22;7912;51.376;6.126;2022-07-30T15:03:45;34.50;53.50
15625;DHT22;7912;51.376;6.126;2022-07-30T15:06:13;34.30;53.80
15625;DHT22;7912;51.376;6.126;2022-07-30T15:08:42;34.10;54.00
15625;DHT22;7912;51.376;6.126;2022-07-30T15:11:11;34.00;53.90
15625;DHT22;7912;51.376;6.126;2022-07-30T15:13:39;33.90;54.20
15625;DHT22;7912;51.376;6.126;2022-07-30T15:16:17;33.80;54.20
15625;DHT22;7912;51.376;6.126;2022-07-30T15:18:45;33.70;54.30
15625;DHT22;7912;51.376;6.126;2022-07-30T15:21:13;33.60;54.60
15625;DHT22;7912;51.376;6.126;2022-07-30T15:23:41;33.40;55.10
15625;DHT22;7912;51.376;6.126;2022-07-30T15:26:09;33.30;55.00
15625;DHT22;7912;51.376;6.126;2022-07-30T15:28:37;33.30;55.10
15625;DHT22;7912;51.376;6.126;2022-07-30T15:31:05;33.30;55.20
15625;DHT22;7912;51.376;6.126;2022-07-30T15:33:32;33.30;55.40
15625;DHT22;7912;51.376;6.126;2022-07-30T15:36:03;33.40;55.40
15625;DHT22;7912;51.376;6.126;2022-07-30T15:38:32;33.50;55.30
15625;DHT22;7912;51.376;6.126;2022-07-30T15:40:59;33.60;55.00
15625;DHT22;7912;51.376;6.126;2022-07-30T15:43:27;33.70;54.80
15625;DHT22;7912;51.376;6.126;2022-07-30T15:45:56;33.70;54.80
15625;DHT22;7912;51.376;6.126;2022-07-30T15:48:24;33.60;54.70
15625;DHT22;7912;51.376;6.126;2022-07-30T15:51:01;33.50;54.80
15625;DHT22;7912;51.376;6.126;2022-07-30T15:53:30;33.50;54.40
15625;DHT22;7912;51.376;6.126;2022-07-30T15:55:59;33.30;54.40
15625;DHT22;7912;51.376;6.126;2022-07-30T15:58:26;33.20;54.60
15625;DHT22;7912;51.376;6.126;2022-07-30T16:00:55;33.00;54.90
15625;DHT22;7912;51.376;6.126;2022-07-30T16:03:23;32.70;55.20
15625;DHT22;7912;51.376;6.126;2022-07-30T16:05:51;32.60;55.40
15625;DHT22;7912;51.376;6.126;2022-07-30T16:08:20;32.50;55.60
15625;DHT22;7912;51.376;6.126;2022-07-30T16:10:48;32.40;55.80
15625;DHT22;7912;51.376;6.126;2022-07-30T16:13:18;32.40;56.00
15625;DHT22;7912;51.376;6.126;2022-07-30T16:15:46;32.40;56.30
15625;DHT22;7912;51.376;6.126;2022-07-30T16:18:13;32.40;56.50
15625;DHT22;7912;51.376;6.126;2022-07-30T16:20:41;32.50;56.50
15625;DHT22;7912;51.376;6.126;2022-07-30T16:23:10;32.50;56.50
15625;DHT22;7912;51.376;6.126;2022-07-30T16:25:43;32.60;56.50
15625;DHT22;7912;51.376;6.126;2022-07-30T16:28:11;32.70;56.60
15625;DHT22;7912;51.376;6.126;2022-07-30T16:31:03;32.80;56.70
15625;DHT22;7912;51.376;6.126;2022-07-30T16:33:34;33.00;57.00
15625;DHT22;7912;51.376;6.126;2022-07-30T16:36:02;33.30;56.40
15625;DHT22;7912;51.376;6.126;2022-07-30T16:38:33;33.50;56.40
15625;DHT22;7912;51.376;6.126;2022-07-30T16:41:01;33.70;56.00
15625;DHT22;7912;51.376;6.126;2022-07-30T16:43:29;34.00;55.70
15625;DHT22;7912;51.376;6.126;2022-07-30T16:45:58;34.20;55.30
15625;DHT22;7912;51.376;6.126;2022-07-30T16:48:27;34.50;55.20
15625;DHT22;7912;51.376;6.126;2022-07-30T16:50:55;34.50;55.00
15625;DHT22;7912;51.376;6.126;2022-07-30T16:53:24;34.60;54.90
15625;DHT22;7912;51.376;6.126;2022-07-30T16:55:52;34.80;54.50
15625;DHT22;7912;51.376;6.126;2022-07-30T16:58:22;34.90;54.20
15625;DHT22;7912;51.376;6.126;2022-07-30T17:00:57;35.00;54.10
15625;DHT22;7912;51.376;6.126;2022-07-30T17:03:25;35.00;53.80